Truro, MA (02666)

9:07 AM EDT on September 03, 2015 (GMT -0400)
Great Hills | | Change Station
CLOSE
Current Station
Personal Weather Station
Location: Truro, MA
Elevation: 26 ft
Nearby Weather Stations

Elev 26 ft 41.99 °N, 70.08 °W | Updated 2 minutes ago

Clear
Clear
73.9 °F
Feels Like 73 °F
N
7.3
Wind Variable Wind from WSW

Today
High -- | Low -- °F
--% Chance of Precip.
Yesterday
High -- | Low -- °F
Precip. -- in
6:07 AM 7:10 PM
Waning Gibbous, 70% visible
Pressure 29.87 in
Visibility 10.0 miles
Clouds Clear
Heat Index 73 °F
Dew Point 69 °F
Humidity 85%
Rainfall 0.00 in
Snow Depth Not available.
UV 3 out of 12
Pollen 8.60 out of 12
Air Quality Not available.
Flu Activity Not available.
METAR KCQX 031252Z AUTO VRB05KT 10SM CLR 25/22 A2987 RMK AO2 SLP115 T02500217
Pressure 29.87 in
Visibility 10.0 miles
Clouds Clear
Heat Index 73 °F
Dew Point 69 °F
Humidity 85%
Rainfall 0.00 in
Snow Depth Not available.
UV 3 out of 12
Pollen 8.60 out of 12
Air Quality Not available.
Flu Activity Not available.
METAR KCQX 031252Z AUTO VRB05KT 10SM CLR 25/22 A2987 RMK AO2 SLP115 T02500217

10-Day Weather Forecast

×

Almanac

Astronomy

Sep. 03, 2015 Rise Set
Actual Time
Civil Twilight
Nautical Twilight
Astronomical Twilight
Moon
Length of Visible Light
Length of Day
Tomorrow will be .
, % of the Moon is Illuminated

Today's Extremes

State Highs State Lows

Community

WunderPhotos

Upload Photos

1,851,952 photos uploaded!

WunderBlogs® & News

Nearby

Air Quality

  Air Quality AQ Index Pollutant
Not available.

Snow Depth

Station Depth Elevation

Earthquake Activity

City Distance Mag. Time & Date
Minimum magnitude displayed is 2.5.

Coastal Water Temperatures

Place Temperature

Stations

Nearby Weather Stations

Station Location Temp. Windchill Dew Point Humidity Wind Precip. Elev Updated Type